createdAt,value
2022-12-11T00:00:27.602Z,7.89
2022-12-11T00:01:27.594Z,7.88
2022-12-11T00:02:27.598Z,7.88
2022-12-11T00:03:27.592Z,7.88
2022-12-11T00:04:27.552Z,7.89
2022-12-11T00:05:27.537Z,7.88
2022-12-11T00:06:27.525Z,7.88
2022-12-11T00:07:27.510Z,7.89
2022-12-11T00:08:27.552Z,7.89
2022-12-11T00:09:27.484Z,7.91
2022-12-11T00:10:27.497Z,7.89
2022-12-11T00:11:27.458Z,7.88
2022-12-11T00:12:27.447Z,7.88
2022-12-11T00:13:27.432Z,7.88
2022-12-11T00:14:27.420Z,7.86
2022-12-11T00:15:27.456Z,7.86
2022-12-11T00:16:27.573Z,7.86
2022-12-11T00:17:27.380Z,7.86
2022-12-11T00:18:27.368Z,7.84
2022-12-11T00:19:27.354Z,7.86
2022-12-11T00:20:27.343Z,7.86
2022-12-11T00:21:27.328Z,7.86
2022-12-11T00:22:27.318Z,7.86
2022-12-11T00:23:27.303Z,7.86
2022-12-11T00:24:27.290Z,7.86
2022-12-11T00:25:27.275Z,7.86
2022-12-11T00:26:27.291Z,7.86
2022-12-11T00:27:27.252Z,7.86
2022-12-11T00:28:27.239Z,7.86
2022-12-11T00:29:27.229Z,7.86
2022-12-11T00:30:27.213Z,7.88
2022-12-11T00:31:27.260Z,7.88
2022-12-11T00:32:28.550Z,7.86
2022-12-11T00:33:27.171Z,7.86
2022-12-11T00:34:27.159Z,7.88
2022-12-11T00:35:27.146Z,7.86
2022-12-11T00:36:27.133Z,7.88
2022-12-11T00:37:27.163Z,7.86
2022-12-11T00:38:27.107Z,7.86
2022-12-11T00:39:27.093Z,7.86
2022-12-11T00:40:27.081Z,7.86
2022-12-11T00:41:27.067Z,7.86
2022-12-11T00:42:27.089Z,7.84
2022-12-11T00:43:27.041Z,7.86
2022-12-11T00:44:27.029Z,7.86
2022-12-11T00:45:27.015Z,7.86
2022-12-11T00:46:27.007Z,7.86
2022-12-11T00:47:26.989Z,7.84
2022-12-11T00:48:26.976Z,7.86
2022-12-11T00:49:26.964Z,7.88
2022-12-11T00:50:26.951Z,7.86
2022-12-11T00:51:26.938Z,7.86
2022-12-11T00:52:26.925Z,7.88
2022-12-11T00:53:26.911Z,7.84
2022-12-11T00:54:26.899Z,7.88
2022-12-11T00:55:26.885Z,7.86
2022-12-11T00:56:26.877Z,7.88
2022-12-11T00:57:26.865Z,7.88
2022-12-11T00:58:26.879Z,7.88
2022-12-11T00:59:26.838Z,7.86
2022-12-11T01:00:26.832Z,7.86
2022-12-11T01:01:26.926Z,7.86
2022-12-11T01:02:26.907Z,7.86
2022-12-11T01:03:26.786Z,7.86
2022-12-11T01:04:26.775Z,7.88
2022-12-11T01:05:26.761Z,7.86
2022-12-11T01:06:26.750Z,7.88
2022-12-11T01:07:26.735Z,7.88
2022-12-11T01:08:26.777Z,7.89
2022-12-11T01:09:26.709Z,7.89
2022-12-11T01:10:26.795Z,7.88
2022-12-11T01:11:26.681Z,7.88
2022-12-11T01:12:26.673Z,7.88
2022-12-11T01:13:26.656Z,7.89
2022-12-11T01:14:26.675Z,7.89
2022-12-11T01:15:26.629Z,7.89
2022-12-11T01:16:26.676Z,7.89
2022-12-11T01:17:26.605Z,7.88
2022-12-11T01:18:26.589Z,7.89
2022-12-11T01:19:26.580Z,7.88
2022-12-11T01:20:26.567Z,7.86
2022-12-11T01:21:26.551Z,7.88
2022-12-11T01:22:26.540Z,7.86
2022-12-11T01:23:26.524Z,7.88
2022-12-11T01:24:26.515Z,7.88
2022-12-11T01:25:26.499Z,7.88
2022-12-11T01:26:26.487Z,7.88
2022-12-11T01:27:26.473Z,7.84
2022-12-11T01:28:26.460Z,7.86
2022-12-11T01:29:26.447Z,7.86
2022-12-11T01:30:26.588Z,7.86
2022-12-11T01:31:26.424Z,7.86
2022-12-11T01:32:26.409Z,7.86
2022-12-11T01:33:26.396Z,7.84
2022-12-11T01:34:26.382Z,7.86
2022-12-11T01:35:26.370Z,7.89
2022-12-11T01:36:26.355Z,7.88
2022-12-11T01:37:26.343Z,7.86
2022-12-11T01:38:26.330Z,7.86
2022-12-11T01:39:26.319Z,7.86
2022-12-11T01:40:26.306Z,7.84
2022-12-11T01:41:26.292Z,7.86
2022-12-11T01:42:26.278Z,7.86
2022-12-11T01:43:26.268Z,7.86
2022-12-11T01:44:26.252Z,7.86
2022-12-11T01:45:27.187Z,7.88
2022-12-11T01:46:26.327Z,7.88
2022-12-11T01:47:26.216Z,7.88
2022-12-11T01:48:26.200Z,7.88
2022-12-11T01:49:26.194Z,7.88
2022-12-11T01:50:26.176Z,7.89
2022-12-11T01:51:26.164Z,7.89
2022-12-11T01:52:26.158Z,7.88
2022-12-11T01:53:26.137Z,7.88
2022-12-11T01:54:26.123Z,7.88
2022-12-11T01:55:26.112Z,7.88
2022-12-11T01:56:26.096Z,7.89
2022-12-11T01:57:26.085Z,7.89
2022-12-11T01:58:26.073Z,7.89
2022-12-11T01:59:26.058Z,7.89
2022-12-11T02:00:26.047Z,7.88
2022-12-11T02:01:26.078Z,7.89
2022-12-11T02:02:26.100Z,7.89
2022-12-11T02:03:26.007Z,7.88
2022-12-11T02:04:25.994Z,7.89
2022-12-11T02:05:25.982Z,7.86
2022-12-11T02:06:25.967Z,7.88
2022-12-11T02:07:25.955Z,7.86
2022-12-11T02:08:26.053Z,7.88
2022-12-11T02:09:25.928Z,7.88
2022-12-11T02:10:25.915Z,7.89
2022-12-11T02:11:25.903Z,7.88
2022-12-11T02:12:25.903Z,7.88
2022-12-11T02:13:25.878Z,7.88
2022-12-11T02:14:25.862Z,7.89
2022-12-11T02:15:25.850Z,7.89
2022-12-11T02:16:25.911Z,7.91
2022-12-11T02:17:25.826Z,7.89
2022-12-11T02:18:25.836Z,7.88
2022-12-11T02:19:25.798Z,7.89
2022-12-11T02:20:25.783Z,7.89
2022-12-11T02:21:25.772Z,7.89
2022-12-11T02:22:25.758Z,7.91
2022-12-11T02:23:25.745Z,7.89
2022-12-11T02:24:25.733Z,7.91
2022-12-11T02:25:25.722Z,7.89
2022-12-11T02:26:25.707Z,7.89
2022-12-11T02:27:25.696Z,7.89
2022-12-11T02:28:25.680Z,7.89
2022-12-11T02:29:25.669Z,7.88
2022-12-11T02:30:25.654Z,7.89
2022-12-11T02:31:25.720Z,7.88
2022-12-11T02:32:25.629Z,7.89
2022-12-11T02:33:25.618Z,7.89
2022-12-11T02:34:25.632Z,7.89
2022-12-11T02:35:25.590Z,7.91
2022-12-11T02:36:25.578Z,7.89
2022-12-11T02:37:25.565Z,7.89
2022-12-11T02:38:25.550Z,7.91
2022-12-11T02:39:25.540Z,7.91
2022-12-11T02:40:25.525Z,7.89
2022-12-11T02:41:25.516Z,7.88
2022-12-11T02:42:25.499Z,7.89
2022-12-11T02:43:25.487Z,7.91
2022-12-11T02:44:25.473Z,7.91
2022-12-11T02:45:25.467Z,7.91
2022-12-11T02:46:25.456Z,7.89
2022-12-11T02:47:25.436Z,7.89
2022-12-11T02:48:25.423Z,7.89
2022-12-11T02:49:25.432Z,7.91
2022-12-11T02:50:25.421Z,7.91
2022-12-11T02:51:25.383Z,7.89
2022-12-11T02:52:25.369Z,7.91
2022-12-11T02:53:25.358Z,7.89
2022-12-11T02:54:25.342Z,7.89
2022-12-11T02:55:25.331Z,7.91
2022-12-11T02:56:25.317Z,7.91
2022-12-11T02:57:25.310Z,7.91
2022-12-11T02:58:25.290Z,7.91
2022-12-11T02:59:25.280Z,7.89
2022-12-11T03:00:25.265Z,7.91
2022-12-11T03:01:25.329Z,7.89
2022-12-11T03:02:25.302Z,7.89
2022-12-11T03:03:25.227Z,7.89
2022-12-11T03:04:25.236Z,7.91
2022-12-11T03:05:25.203Z,7.89
2022-12-11T03:06:25.208Z,7.91
2022-12-11T03:07:25.174Z,7.89
2022-12-11T03:08:25.257Z,7.89
2022-12-11T03:09:25.149Z,7.88
2022-12-11T03:10:25.135Z,7.86
2022-12-11T03:11:25.123Z,7.88
2022-12-11T03:12:25.107Z,7.88
2022-12-11T03:13:25.096Z,7.89
2022-12-11T03:14:25.083Z,7.88
2022-12-11T03:15:25.072Z,7.88
2022-12-11T03:16:25.103Z,7.88
2022-12-11T03:17:25.045Z,7.88
2022-12-11T03:18:25.033Z,7.91
2022-12-11T03:19:25.020Z,7.89
2022-12-11T03:20:25.005Z,7.91
2022-12-11T03:21:24.994Z,7.89
2022-12-11T03:22:25.002Z,7.89
2022-12-11T03:23:24.967Z,7.89
2022-12-11T03:24:24.954Z,7.88
2022-12-11T03:25:24.944Z,7.89
2022-12-11T03:26:24.927Z,7.89
2022-12-11T03:27:24.916Z,7.89
2022-12-11T03:28:24.899Z,7.89
2022-12-11T03:29:24.888Z,7.88
2022-12-11T03:30:24.949Z,7.89
2022-12-11T03:31:24.862Z,7.89
2022-12-11T03:32:24.849Z,7.91
2022-12-11T03:33:24.835Z,7.91
2022-12-11T03:34:24.823Z,7.89
2022-12-11T03:35:24.812Z,7.89
2022-12-11T03:36:24.794Z,7.89
2022-12-11T03:37:24.783Z,7.88
2022-12-11T03:38:24.793Z,7.88
2022-12-11T03:39:24.757Z,7.88
2022-12-11T03:40:24.743Z,7.88
2022-12-11T03:41:24.733Z,7.88
2022-12-11T03:42:24.719Z,7.88
2022-12-11T03:43:24.707Z,7.86
2022-12-11T03:44:24.693Z,7.88
2022-12-11T03:45:24.681Z,7.86
2022-12-11T03:46:24.692Z,7.86
2022-12-11T03:47:24.657Z,7.84
2022-12-11T03:48:24.641Z,7.86
2022-12-11T03:49:24.629Z,7.86
2022-12-11T03:50:24.615Z,7.88
2022-12-11T03:51:24.603Z,7.88
2022-12-11T03:52:24.588Z,7.88
2022-12-11T03:53:24.577Z,7.88
2022-12-11T03:54:24.584Z,7.88
2022-12-11T03:55:24.549Z,7.88
2022-12-11T03:56:24.536Z,7.88
2022-12-11T03:57:24.523Z,7.88
2022-12-11T03:58:24.510Z,7.88
2022-12-11T03:59:24.497Z,7.86
2022-12-11T04:00:24.482Z,7.91
2022-12-11T04:01:24.552Z,7.86
2022-12-11T04:02:24.457Z,7.88
2022-12-11T04:03:24.445Z,7.86
2022-12-11T04:04:24.477Z,7.88
2022-12-11T04:05:24.421Z,7.86
2022-12-11T04:06:24.408Z,7.86
2022-12-11T04:07:24.397Z,7.88
2022-12-11T04:08:24.435Z,7.86
2022-12-11T04:09:24.366Z,7.88
2022-12-11T04:10:24.376Z,7.86
2022-12-11T04:11:24.342Z,7.88
2022-12-11T04:12:24.328Z,7.84
2022-12-11T04:13:24.315Z,7.84
2022-12-11T04:14:24.301Z,7.83
2022-12-11T04:15:24.288Z,7.86
2022-12-11T04:16:24.274Z,7.84
2022-12-11T04:17:24.267Z,7.84
2022-12-11T04:18:24.247Z,7.86
2022-12-11T04:19:24.237Z,7.86
2022-12-11T04:20:24.224Z,7.86
2022-12-11T04:21:24.211Z,7.88
2022-12-11T04:22:24.197Z,7.88
2022-12-11T04:23:24.187Z,7.88
2022-12-11T04:24:24.170Z,7.86
2022-12-11T04:25:24.167Z,7.86
2022-12-11T04:26:24.175Z,7.86
2022-12-11T04:27:24.135Z,7.86
2022-12-11T04:28:24.121Z,7.88
2022-12-11T04:29:24.108Z,7.89
2022-12-11T04:30:26.920Z,7.86
2022-12-11T04:31:24.149Z,7.88
2022-12-11T04:32:24.067Z,7.88
2022-12-11T04:33:24.056Z,7.84
2022-12-11T04:34:24.041Z,7.88
2022-12-11T04:35:24.035Z,7.86
2022-12-11T04:36:24.015Z,7.86
2022-12-11T04:37:24.016Z,7.86
2022-12-11T04:38:23.990Z,7.86
2022-12-11T04:39:23.978Z,7.88
2022-12-11T04:40:23.963Z,7.84
2022-12-11T04:41:23.953Z,7.84
2022-12-11T04:42:23.964Z,7.86
2022-12-11T04:43:23.925Z,7.83
2022-12-11T04:44:23.911Z,7.86
2022-12-11T04:45:23.901Z,7.86
2022-12-11T04:46:23.933Z,7.86
2022-12-11T04:47:23.875Z,7.84
2022-12-11T04:48:23.863Z,7.84
2022-12-11T04:49:23.849Z,7.86
2022-12-11T04:50:23.838Z,7.84
2022-12-11T04:51:23.821Z,7.84
2022-12-11T04:52:23.812Z,7.84
2022-12-11T04:53:23.797Z,7.84
2022-12-11T04:54:23.782Z,7.84
2022-12-11T04:55:23.773Z,7.84
2022-12-11T04:56:23.756Z,7.84
2022-12-11T04:57:23.744Z,7.84
2022-12-11T04:58:23.757Z,7.84
2022-12-11T04:59:23.717Z,7.84
2022-12-11T05:00:23.703Z,7.84
2022-12-11T05:01:23.773Z,7.86
2022-12-11T05:02:23.759Z,7.86
2022-12-11T05:03:23.666Z,7.86
2022-12-11T05:04:23.654Z,7.86
2022-12-11T05:05:23.641Z,7.86
2022-12-11T05:06:23.629Z,7.84
2022-12-11T05:07:23.614Z,7.84
2022-12-11T05:08:23.610Z,7.89
2022-12-11T05:09:23.587Z,7.86
2022-12-11T05:10:23.574Z,7.86
2022-12-11T05:11:23.566Z,7.84
2022-12-11T05:12:23.547Z,7.86
2022-12-11T05:13:23.535Z,7.86
2022-12-11T05:14:23.544Z,7.88
2022-12-11T05:15:23.511Z,7.88
2022-12-11T05:16:23.554Z,7.88
2022-12-11T05:17:23.488Z,7.88
2022-12-11T05:18:23.471Z,7.86
2022-12-11T05:19:23.460Z,7.88
2022-12-11T05:20:23.450Z,7.88
2022-12-11T05:21:23.431Z,7.89
2022-12-11T05:22:23.422Z,7.88
2022-12-11T05:23:23.406Z,7.88
2022-12-11T05:24:23.392Z,7.88
2022-12-11T05:25:23.380Z,7.88
2022-12-11T05:26:23.366Z,7.86
2022-12-11T05:27:23.354Z,7.88
2022-12-11T05:28:23.339Z,7.88
2022-12-11T05:29:23.327Z,7.86
2022-12-11T05:30:23.338Z,7.86
2022-12-11T05:31:23.347Z,7.86
2022-12-11T05:32:23.289Z,7.86
2022-12-11T05:33:23.276Z,7.88
2022-12-11T05:34:23.262Z,7.88
2022-12-11T05:35:23.250Z,7.86
2022-12-11T05:36:23.238Z,7.88
2022-12-11T05:37:23.226Z,7.88
2022-12-11T05:38:23.211Z,7.86
2022-12-11T05:39:23.204Z,7.88
2022-12-11T05:40:23.185Z,7.88
2022-12-11T05:41:23.175Z,7.86
2022-12-11T05:42:28.598Z,7.86
2022-12-11T05:43:23.150Z,7.88
2022-12-11T05:44:23.137Z,7.88
2022-12-11T05:45:23.122Z,7.88
2022-12-11T05:46:28.452Z,7.86
2022-12-11T05:47:23.173Z,7.88
2022-12-11T05:48:23.080Z,7.88
2022-12-11T05:49:29.004Z,7.86
2022-12-11T05:50:24.096Z,7.88
2022-12-11T05:51:23.042Z,7.89
2022-12-11T05:52:23.029Z,7.88
2022-12-11T05:53:23.019Z,7.88
2022-12-11T05:54:23.005Z,7.89
2022-12-11T05:55:22.990Z,7.88
2022-12-11T05:56:22.978Z,7.89
2022-12-11T05:57:22.964Z,7.88
2022-12-11T05:58:22.952Z,7.88
2022-12-11T05:59:22.939Z,7.88
2022-12-11T06:00:22.929Z,7.88
2022-12-11T06:01:22.912Z,7.86
2022-12-11T06:02:23.023Z,7.86
2022-12-11T06:03:22.968Z,7.86
2022-12-11T06:04:22.875Z,7.86
2022-12-11T06:05:22.861Z,7.86
2022-12-11T06:06:22.899Z,7.86
2022-12-11T06:07:22.835Z,7.86
2022-12-11T06:08:22.887Z,7.86
2022-12-11T06:09:22.808Z,7.84
2022-12-11T06:10:22.801Z,7.84
2022-12-11T06:11:24.303Z,7.86
2022-12-11T06:12:22.774Z,7.86
2022-12-11T06:13:22.756Z,7.84
2022-12-11T06:14:22.748Z,7.86
2022-12-11T06:15:22.730Z,7.86
2022-12-11T06:16:22.815Z,7.86
2022-12-11T06:17:22.705Z,7.88
2022-12-11T06:18:22.695Z,7.86
2022-12-11T06:19:22.703Z,7.84
2022-12-11T06:20:22.670Z,7.86
2022-12-11T06:21:22.705Z,7.88
2022-12-11T06:22:22.644Z,7.86
2022-12-11T06:23:22.629Z,7.86
2022-12-11T06:24:22.616Z,7.86
2022-12-11T06:25:22.602Z,7.86
2022-12-11T06:26:22.596Z,7.86
2022-12-11T06:27:22.577Z,7.88
2022-12-11T06:28:22.565Z,7.88
2022-12-11T06:29:22.551Z,7.86
2022-12-11T06:30:22.538Z,7.84
2022-12-11T06:31:23.620Z,7.88
2022-12-11T06:32:22.513Z,7.86
2022-12-11T06:33:22.501Z,7.88
2022-12-11T06:34:22.488Z,7.84
2022-12-11T06:35:22.500Z,7.84
2022-12-11T06:36:22.479Z,7.86
2022-12-11T06:37:22.471Z,7.88
2022-12-11T06:38:22.436Z,7.86
2022-12-11T06:39:22.429Z,7.86
2022-12-11T06:40:22.425Z,7.84
2022-12-11T06:41:22.439Z,7.84
2022-12-11T06:42:22.384Z,7.86
2022-12-11T06:43:22.376Z,7.86
2022-12-11T06:44:22.359Z,7.88
2022-12-11T06:45:22.343Z,7.86
2022-12-11T06:46:22.367Z,7.84
2022-12-11T06:47:22.317Z,7.84
2022-12-11T06:48:22.306Z,7.84
2022-12-11T06:49:22.291Z,7.86
2022-12-11T06:50:22.283Z,7.84
2022-12-11T06:51:22.288Z,7.84
2022-12-11T06:52:22.253Z,7.84
2022-12-11T06:53:22.240Z,7.84
2022-12-11T06:54:22.227Z,7.86
2022-12-11T06:55:22.212Z,7.88
2022-12-11T06:56:22.201Z,7.84
2022-12-11T06:57:22.186Z,7.86
2022-12-11T06:58:22.176Z,7.84
2022-12-11T06:59:22.161Z,7.86
2022-12-11T07:00:22.151Z,7.86
2022-12-11T07:01:22.236Z,7.86
2022-12-11T07:02:22.179Z,7.84
2022-12-11T07:03:22.109Z,7.84
2022-12-11T07:04:22.099Z,7.86
2022-12-11T07:05:22.084Z,7.86
2022-12-11T07:06:22.071Z,7.86
2022-12-11T07:07:22.081Z,7.86
2022-12-11T07:08:22.116Z,7.84
2022-12-11T07:09:22.032Z,7.86
2022-12-11T07:10:22.028Z,7.84
2022-12-11T07:11:22.011Z,7.88
2022-12-11T07:12:21.994Z,7.86
2022-12-11T07:13:21.979Z,7.84
2022-12-11T07:14:21.969Z,7.88
2022-12-11T07:15:21.959Z,7.84
2022-12-11T07:16:22.035Z,7.86
2022-12-11T07:17:21.929Z,7.86
2022-12-11T07:18:21.918Z,7.86
2022-12-11T07:19:21.902Z,7.88
2022-12-11T07:20:21.892Z,7.88
2022-12-11T07:21:21.875Z,7.86
2022-12-11T07:22:21.863Z,7.89
2022-12-11T07:23:21.873Z,7.86
2022-12-11T07:24:21.837Z,7.86
2022-12-11T07:25:21.824Z,7.86
2022-12-11T07:26:21.812Z,7.88
2022-12-11T07:27:21.803Z,7.86
2022-12-11T07:28:21.786Z,7.84
2022-12-11T07:29:21.770Z,7.86
2022-12-11T07:30:21.760Z,7.86
2022-12-11T07:31:21.894Z,7.86
2022-12-11T07:32:21.897Z,7.88
2022-12-11T07:33:21.719Z,7.88
2022-12-11T07:34:21.708Z,7.86
2022-12-11T07:35:21.693Z,7.86
2022-12-11T07:36:21.683Z,7.89
2022-12-11T07:37:21.667Z,7.86
2022-12-11T07:38:21.659Z,7.86
2022-12-11T07:39:21.663Z,7.88
2022-12-11T07:40:21.629Z,7.88
2022-12-11T07:41:21.614Z,7.84
2022-12-11T07:42:21.603Z,7.86
2022-12-11T07:43:21.589Z,7.84
2022-12-11T07:44:21.578Z,7.86
2022-12-11T07:45:21.563Z,7.86
2022-12-11T07:46:21.625Z,7.88
2022-12-11T07:47:21.536Z,7.86
2022-12-11T07:48:21.525Z,7.86
2022-12-11T07:49:21.510Z,7.86
2022-12-11T07:50:21.501Z,7.84
2022-12-11T07:51:21.485Z,7.86
2022-12-11T07:52:21.477Z,7.88
2022-12-11T07:53:21.459Z,7.89
2022-12-11T07:54:21.447Z,7.89
2022-12-11T07:55:21.457Z,7.88
2022-12-11T07:56:21.423Z,7.86
2022-12-11T07:57:21.411Z,7.86
2022-12-11T07:58:21.397Z,7.88
2022-12-11T07:59:21.424Z,7.88
2022-12-11T08:00:21.371Z,7.84
2022-12-11T08:01:21.482Z,7.86
2022-12-11T08:02:21.373Z,7.86
2022-12-11T08:03:21.330Z,7.86
2022-12-11T08:04:21.321Z,7.86
2022-12-11T08:05:21.304Z,7.84
2022-12-11T08:06:21.292Z,7.89
2022-12-11T08:07:21.279Z,7.89
2022-12-11T08:08:21.328Z,7.91
2022-12-11T08:09:21.547Z,7.89
2022-12-11T08:10:21.241Z,7.89
2022-12-11T08:11:21.248Z,7.91
2022-12-11T08:12:21.217Z,7.88
2022-12-11T08:13:21.201Z,7.89
2022-12-11T08:14:21.191Z,7.88
2022-12-11T08:15:21.175Z,7.88
2022-12-11T08:16:21.234Z,7.88
2022-12-11T08:17:25.870Z,7.88
2022-12-11T08:18:22.176Z,7.86
2022-12-11T08:19:21.126Z,7.89
2022-12-11T08:20:21.112Z,7.88
2022-12-11T08:21:21.096Z,7.88
2022-12-11T08:22:21.085Z,7.88
2022-12-11T08:23:21.072Z,7.88
2022-12-11T08:24:21.061Z,7.86
2022-12-11T08:25:21.045Z,7.88
2022-12-11T08:26:21.033Z,7.86
2022-12-11T08:27:21.040Z,7.89
2022-12-11T08:28:21.008Z,7.88
2022-12-11T08:29:20.992Z,7.88
2022-12-11T08:30:20.981Z,7.89
2022-12-11T08:31:21.061Z,7.88
2022-12-11T08:32:20.957Z,7.89
2022-12-11T08:33:20.944Z,7.88
2022-12-11T08:34:20.931Z,7.89
2022-12-11T08:35:20.921Z,7.88
2022-12-11T08:36:20.905Z,7.89
2022-12-11T08:37:20.893Z,7.89
2022-12-11T08:38:25.179Z,7.88
2022-12-11T08:39:20.865Z,7.86
2022-12-11T08:40:20.855Z,7.88
2022-12-11T08:41:20.838Z,7.89
2022-12-11T08:42:20.825Z,7.88
2022-12-11T08:43:20.839Z,7.89
2022-12-11T08:44:20.802Z,7.89
2022-12-11T08:45:20.788Z,7.89
2022-12-11T08:46:20.827Z,7.91
2022-12-11T08:47:20.768Z,7.91
2022-12-11T08:48:20.747Z,7.89
2022-12-11T08:49:20.732Z,7.89
2022-12-11T08:50:20.721Z,7.89
2022-12-11T08:51:20.708Z,7.91
2022-12-11T08:52:20.696Z,7.89
2022-12-11T08:53:20.681Z,7.89
2022-12-11T08:54:20.670Z,7.89
2022-12-11T08:55:20.657Z,7.89
2022-12-11T08:56:20.649Z,7.91
2022-12-11T08:57:20.630Z,7.91
2022-12-11T08:58:20.617Z,7.92
2022-12-11T08:59:20.626Z,7.91
2022-12-11T09:00:20.595Z,7.92
2022-12-11T09:01:20.691Z,7.92
2022-12-11T09:02:20.617Z,7.91
2022-12-11T09:03:20.552Z,7.92
2022-12-11T09:04:20.540Z,7.92
2022-12-11T09:05:20.534Z,7.92
2022-12-11T09:06:20.514Z,7.92
2022-12-11T09:07:20.499Z,7.93
2022-12-11T09:08:20.571Z,7.95
2022-12-11T09:09:20.472Z,7.92
2022-12-11T09:10:20.463Z,7.91
2022-12-11T09:11:20.447Z,7.92
2022-12-11T09:12:20.436Z,7.92
2022-12-11T09:13:20.422Z,7.93
2022-12-11T09:14:20.409Z,7.92
2022-12-11T09:15:20.418Z,7.93
2022-12-11T09:16:20.482Z,7.92
2022-12-11T09:17:20.368Z,7.92
2022-12-11T09:18:20.357Z,7.93
2022-12-11T09:19:20.344Z,7.93
2022-12-11T09:20:20.400Z,7.93
2022-12-11T09:21:20.317Z,7.93
2022-12-11T09:22:20.306Z,7.93
2022-12-11T09:23:20.293Z,7.93
2022-12-11T09:24:20.281Z,7.93
2022-12-11T09:25:20.266Z,7.93
2022-12-11T09:26:20.254Z,7.93
2022-12-11T09:27:20.240Z,7.93
2022-12-11T09:28:20.229Z,7.96
2022-12-11T09:29:20.214Z,7.95
2022-12-11T09:30:20.250Z,7.95
2022-12-11T09:31:20.369Z,7.95
2022-12-11T09:32:20.178Z,7.93
2022-12-11T09:33:20.163Z,7.95
2022-12-11T09:34:23.639Z,7.95
2022-12-11T09:35:21.177Z,7.95
2022-12-11T09:36:20.125Z,7.96
2022-12-11T09:37:20.111Z,7.93
2022-12-11T09:38:20.100Z,7.95
2022-12-11T09:39:20.138Z,7.96
2022-12-11T09:40:20.200Z,7.96
2022-12-11T09:41:20.059Z,7.95
2022-12-11T09:42:20.047Z,7.95
2022-12-11T09:43:20.032Z,7.95
2022-12-11T09:44:20.022Z,7.92
2022-12-11T09:45:20.007Z,7.93
2022-12-11T09:46:22.573Z,7.93
2022-12-11T09:47:20.003Z,7.93
2022-12-11T09:48:19.971Z,7.93
2022-12-11T09:49:19.955Z,7.93
2022-12-11T09:50:19.943Z,7.93
2022-12-11T09:51:19.929Z,7.95
2022-12-11T09:52:19.920Z,7.95
2022-12-11T09:53:19.903Z,7.95
2022-12-11T09:54:19.892Z,7.95
2022-12-11T09:55:19.877Z,7.96
2022-12-11T09:56:19.866Z,7.95
2022-12-11T09:57:19.853Z,7.96
2022-12-11T09:58:19.841Z,7.96
2022-12-11T09:59:19.825Z,7.96
2022-12-11T10:00:19.820Z,7.95
2022-12-11T10:01:19.896Z,7.93
2022-12-11T10:02:19.858Z,7.96
2022-12-11T10:03:19.797Z,7.96
2022-12-11T10:04:19.763Z,7.96
2022-12-11T10:05:19.748Z,7.96
2022-12-11T10:06:19.735Z,7.98
2022-12-11T10:07:19.723Z,7.98
2022-12-11T10:08:19.786Z,7.96
2022-12-11T10:09:19.698Z,7.96
2022-12-11T10:10:19.684Z,7.95
2022-12-11T10:11:19.673Z,7.98
2022-12-11T10:12:19.659Z,7.99
2022-12-11T10:13:19.648Z,7.98
2022-12-11T10:14:19.632Z,7.98
2022-12-11T10:15:19.627Z,7.98
2022-12-11T10:16:19.668Z,7.96
2022-12-11T10:17:19.596Z,7.96
2022-12-11T10:18:19.578Z,7.98
2022-12-11T10:19:19.593Z,7.96
2022-12-11T10:20:19.551Z,7.95
2022-12-11T10:21:19.545Z,7.95
2022-12-11T10:22:19.546Z,7.96
2022-12-11T10:23:19.518Z,7.93
2022-12-11T10:24:40.835Z,7.95
2022-12-11T10:25:27.741Z,7.95
2022-12-11T10:26:19.475Z,7.95
2022-12-11T10:27:19.464Z,7.95
2022-12-11T10:28:19.449Z,7.95
2022-12-11T10:29:19.439Z,7.96
2022-12-11T10:30:19.424Z,7.96
2022-12-11T10:31:19.556Z,7.95
2022-12-11T10:32:19.398Z,7.95
2022-12-11T10:33:19.387Z,7.95
2022-12-11T10:34:19.369Z,7.95
2022-12-11T10:35:19.383Z,7.95
2022-12-11T10:36:19.346Z,7.95
2022-12-11T10:37:19.335Z,7.95
2022-12-11T10:38:19.323Z,7.92
2022-12-11T10:39:19.307Z,7.95
2022-12-11T10:40:19.293Z,7.93
2022-12-11T10:41:19.280Z,7.95
2022-12-11T10:42:19.268Z,7.95
2022-12-11T10:43:19.254Z,7.95
2022-12-11T10:44:19.240Z,7.95
2022-12-11T10:45:19.232Z,7.95
2022-12-11T10:46:19.268Z,7.93
2022-12-11T10:47:19.203Z,7.95
2022-12-11T10:48:19.189Z,7.95
2022-12-11T10:49:54.130Z,7.96
2022-12-11T10:51:00.145Z,7.96
2022-12-11T10:52:00.107Z,7.96
2022-12-11T10:52:54.091Z,7.96
2022-12-11T10:53:54.081Z,7.93
2022-12-11T10:54:54.062Z,7.95
2022-12-11T10:55:54.053Z,7.93
2022-12-11T10:56:54.041Z,7.95
2022-12-11T10:57:54.024Z,7.95
2022-12-11T10:58:54.008Z,7.95
2022-12-11T10:59:54.000Z,7.93
2022-12-11T11:00:53.984Z,7.93
2022-12-11T11:01:54.077Z,7.95
2022-12-11T11:02:53.997Z,7.96
2022-12-11T11:03:53.947Z,7.96
2022-12-11T11:04:53.932Z,7.96
2022-12-11T11:05:53.923Z,7.93
2022-12-11T11:06:53.934Z,7.93
2022-12-11T11:07:53.953Z,7.95
2022-12-11T11:08:53.879Z,7.95
2022-12-11T11:09:53.868Z,7.96
2022-12-11T11:10:53.854Z,7.95
2022-12-11T11:11:53.842Z,7.95
2022-12-11T11:12:53.827Z,7.96
2022-12-11T11:13:53.814Z,7.98
2022-12-11T11:14:53.801Z,7.96
2022-12-11T11:15:53.844Z,7.95
2022-12-11T11:16:53.777Z,7.96
2022-12-11T11:17:55.906Z,7.96
2022-12-11T11:18:53.750Z,7.96
2022-12-11T11:19:53.739Z,7.98
2022-12-11T11:20:53.723Z,7.98
2022-12-11T11:21:53.712Z,7.98
2022-12-11T11:22:53.721Z,7.98
2022-12-11T11:23:53.900Z,7.98
2022-12-11T11:24:53.676Z,7.99
2022-12-11T11:25:53.663Z,7.98
2022-12-11T11:27:12.959Z,7.98
2022-12-11T11:27:54.671Z,7.98
2022-12-11T11:28:53.620Z,7.98
2022-12-11T11:29:53.612Z,7.98
2022-12-11T11:30:53.668Z,7.96
2022-12-11T11:31:53.579Z,7.96
2022-12-11T11:32:53.565Z,7.96
2022-12-11T11:33:53.551Z,7.98
2022-12-11T11:34:53.541Z,7.98
2022-12-11T11:35:53.535Z,7.98
2022-12-11T11:36:53.515Z,7.96
2022-12-11T11:37:53.500Z,7.96
2022-12-11T11:38:53.513Z,7.96
2022-12-11T11:39:53.473Z,7.96
2022-12-11T11:40:53.466Z,7.93
2022-12-11T11:41:53.446Z,7.95
2022-12-11T11:42:53.436Z,7.95
2022-12-11T11:43:53.421Z,7.95
2022-12-11T11:44:53.411Z,7.93
2022-12-11T11:45:53.454Z,7.92
2022-12-11T11:46:53.475Z,7.95
2022-12-11T11:47:53.369Z,7.96
2022-12-11T11:48:53.357Z,7.96
2022-12-11T11:49:53.343Z,7.95
2022-12-11T11:50:53.333Z,7.95
2022-12-11T11:51:53.318Z,7.95
2022-12-11T11:52:53.307Z,7.95
2022-12-11T11:53:53.290Z,7.95
2022-12-11T11:54:53.370Z,7.95
2022-12-11T11:55:53.354Z,7.95
2022-12-11T11:56:53.254Z,7.93
2022-12-11T11:57:53.239Z,7.95
2022-12-11T11:58:53.229Z,7.95
2022-12-11T11:59:53.212Z,7.95
2022-12-11T12:00:53.202Z,7.93
2022-12-11T12:01:53.188Z,7.92
2022-12-11T12:02:53.220Z,7.95
2022-12-11T12:03:53.164Z,7.92
2022-12-11T12:04:53.156Z,7.93
2022-12-11T12:05:53.135Z,7.92
2022-12-11T12:06:53.127Z,7.93
2022-12-11T12:07:53.187Z,7.91
2022-12-11T12:08:53.099Z,7.92
2022-12-11T12:09:53.187Z,7.91
2022-12-11T12:10:53.097Z,7.92
2022-12-11T12:11:53.097Z,7.92
2022-12-11T12:12:53.049Z,7.92
2022-12-11T12:13:53.031Z,7.92
2022-12-11T12:14:53.093Z,7.92
2022-12-11T12:15:53.173Z,7.93
2022-12-11T12:16:53.813Z,7.92
2022-12-11T12:17:55.673Z,7.91
2022-12-11T12:18:52.967Z,7.91
2022-12-11T12:19:52.950Z,7.92
2022-12-11T12:20:52.946Z,7.92
2022-12-11T12:21:52.926Z,7.93
2022-12-11T12:22:52.915Z,7.93
2022-12-11T12:23:52.899Z,7.93
2022-12-11T12:24:52.888Z,7.93
2022-12-11T12:25:52.872Z,7.93
2022-12-11T12:26:52.886Z,7.91
2022-12-11T12:27:53.327Z,7.91
2022-12-11T12:28:52.835Z,7.91
2022-12-11T12:29:52.831Z,7.92
2022-12-11T12:30:52.815Z,7.91
2022-12-11T12:31:52.870Z,7.91
2022-12-11T12:32:52.783Z,7.93
2022-12-11T12:33:52.768Z,7.89
2022-12-11T12:34:52.758Z,7.92
2022-12-11T12:35:52.753Z,7.91
2022-12-11T12:36:52.731Z,7.91
2022-12-11T12:37:52.718Z,7.89
2022-12-11T12:38:52.704Z,7.89
2022-12-11T12:39:52.689Z,7.89
2022-12-11T12:40:52.678Z,7.89
2022-12-11T12:41:52.673Z,7.89
2022-12-11T12:42:52.689Z,7.91
2022-12-11T12:43:52.704Z,7.91
2022-12-11T12:44:52.625Z,7.91
2022-12-11T12:45:52.746Z,7.91
2022-12-11T12:46:52.600Z,7.92
2022-12-11T12:47:53.621Z,7.92
2022-12-11T12:48:52.573Z,7.92
2022-12-11T12:49:52.561Z,7.92
2022-12-11T12:50:52.548Z,7.92
2022-12-11T12:51:52.534Z,7.92
2022-12-11T12:52:52.521Z,7.91
2022-12-11T12:53:52.508Z,7.91
2022-12-11T12:54:52.495Z,7.89
2022-12-11T12:55:52.481Z,7.88
2022-12-11T12:56:52.470Z,7.89
2022-12-11T12:57:52.455Z,7.89
2022-12-11T12:58:52.470Z,7.89
2022-12-11T12:59:52.431Z,7.91
2022-12-11T13:00:52.449Z,7.92
2022-12-11T13:01:52.577Z,7.91
2022-12-11T13:02:52.391Z,7.91
2022-12-11T13:03:52.377Z,7.89
2022-12-11T13:04:56.464Z,7.89
2022-12-11T13:05:52.352Z,7.89
2022-12-11T13:06:52.340Z,7.89
2022-12-11T13:07:54.435Z,7.89
2022-12-11T13:08:52.314Z,7.88
2022-12-11T13:09:52.298Z,7.89
2022-12-11T13:10:52.286Z,7.89
2022-12-11T13:11:52.272Z,7.89
2022-12-11T13:12:52.260Z,7.89
2022-12-11T13:13:55.120Z,7.89
2022-12-11T13:14:52.259Z,7.89
2022-12-11T13:15:52.218Z,7.88
2022-12-11T13:16:52.207Z,7.88
2022-12-11T13:17:52.192Z,7.88
2022-12-11T13:18:52.190Z,7.88